sensor_id;sensor_type;location;lat;lon;timestamp;temperature;humidity
29303;DHT22;60019;45.556;12.004;2023-07-20T13:23:30;34.10;82.40
29303;DHT22;60019;45.556;12.004;2023-07-20T13:29:31;34.20;83.20
29303;DHT22;60019;45.556;12.004;2023-07-20T13:35:33;34.30;82.40
29303;DHT22;60019;45.556;12.004;2023-07-20T13:41:35;34.40;82.60
29303;DHT22;60019;45.556;12.004;2023-07-20T13:47:36;34.60;82.80
29303;DHT22;60019;45.556;12.004;2023-07-20T13:53:38;34.80;82.40
29303;DHT22;60019;45.556;12.004;2023-07-20T13:59:39;35.00;82.10
29303;DHT22;60019;45.556;12.004;2023-07-20T14:05:41;35.10;81.90
29303;DHT22;60019;45.556;12.004;2023-07-20T14:11:44;35.20;81.20
29303;DHT22;60019;45.556;12.004;2023-07-20T14:17:46;35.30;80.60
29303;DHT22;60019;45.556;12.004;2023-07-20T14:23:49;35.40;80.40
29303;DHT22;60019;45.556;12.004;2023-07-20T14:29:51;35.40;80.50
29303;DHT22;60019;45.556;12.004;2023-07-20T14:35:52;35.50;80.90
29303;DHT22;60019;45.556;12.004;2023-07-20T14:41:54;35.60;80.80
29303;DHT22;60019;45.556;12.004;2023-07-20T14:47:55;35.70;81.00
29303;DHT22;60019;45.556;12.004;2023-07-20T14:53:56;35.80;80.30
29303;DHT22;60019;45.556;12.004;2023-07-20T14:59:58;35.80;80.20
29303;DHT22;60019;45.556;12.004;2023-07-20T15:06:00;35.80;80.00
29303;DHT22;60019;45.556;12.004;2023-07-20T15:12:02;35.90;80.10
29303;DHT22;60019;45.556;12.004;2023-07-20T15:18:04;35.90;80.10
29303;DHT22;60019;45.556;12.004;2023-07-20T15:24:05;36.00;79.80
29303;DHT22;60019;45.556;12.004;2023-07-20T15:30:07;36.00;79.70
29303;DHT22;60019;45.556;12.004;2023-07-20T15:36:09;36.10;79.80
29303;DHT22;60019;45.556;12.004;2023-07-20T15:42:10;36.10;79.60
29303;DHT22;60019;45.556;12.004;2023-07-20T15:48:11;36.10;78.90
29303;DHT22;60019;45.556;12.004;2023-07-20T15:54:14;36.10;78.70
29303;DHT22;60019;45.556;12.004;2023-07-20T16:00:16;36.10;78.90
29303;DHT22;60019;45.556;12.004;2023-07-20T16:06:19;36.10;79.40
29303;DHT22;60019;45.556;12.004;2023-07-20T16:12:20;36.20;78.60
29303;DHT22;60019;45.556;12.004;2023-07-20T16:18:26;36.20;78.20
29303;DHT22;60019;45.556;12.004;2023-07-20T16:24:29;36.30;77.30
29303;DHT22;60019;45.556;12.004;2023-07-20T16:30:32;36.30;77.30
29303;DHT22;60019;45.556;12.004;2023-07-20T16:36:34;36.40;77.50
29303;DHT22;60019;45.556;12.004;2023-07-20T16:42:36;36.40;76.90
29303;DHT22;60019;45.556;12.004;2023-07-20T16:48:37;36.50;76.50
29303;DHT22;60019;45.556;12.004;2023-07-20T16:54:39;36.50;76.10
29303;DHT22;60019;45.556;12.004;2023-07-20T17:00:40;36.50;76.00
29303;DHT22;60019;45.556;12.004;2023-07-20T17:06:43;36.60;76.60
29303;DHT22;60019;45.556;12.004;2023-07-20T17:12:47;36.60;76.80
29303;DHT22;60019;45.556;12.004;2023-07-20T17:18:49;36.60;75.80
29303;DHT22;60019;45.556;12.004;2023-07-20T17:24:50;36.60;76.30
29303;DHT22;60019;45.556;12.004;2023-07-20T17:30:59;36.60;76.20
29303;DHT22;60019;45.556;12.004;2023-07-20T17:37:01;36.70;76.40
29303;DHT22;60019;45.556;12.004;2023-07-20T17:43:02;36.70;76.30
29303;DHT22;60019;45.556;12.004;2023-07-20T17:49:04;36.40;74.00
29303;DHT22;60019;45.556;12.004;2023-07-20T17:55:06;36.10;74.20
29303;DHT22;60019;45.556;12.004;2023-07-20T18:01:08;35.60;75.00
29303;DHT22;60019;45.556;12.004;2023-07-20T18:07:10;35.30;75.70
29303;DHT22;60019;45.556;12.004;2023-07-20T18:13:11;35.00;76.40
29303;DHT22;60019;45.556;12.004;2023-07-20T18:19:13;34.80;77.10
29303;DHT22;60019;45.556;12.004;2023-07-20T18:25:14;34.80;77.80
29303;DHT22;60019;45.556;12.004;2023-07-20T18:31:15;35.60;77.30
29303;DHT22;60019;45.556;12.004;2023-07-20T18:37:17;35.40;79.10
29303;DHT22;60019;45.556;12.004;2023-07-20T18:43:22;35.30;79.60
29303;DHT22;60019;45.556;12.004;2023-07-20T18:49:23;35.50;79.90
29303;DHT22;60019;45.556;12.004;2023-07-20T18:55:27;35.80;80.00
29303;DHT22;60019;45.556;12.004;2023-07-20T19:01:29;35.30;81.90
29303;DHT22;60019;45.556;12.004;2023-07-20T19:07:30;34.70;81.90
29303;DHT22;60019;45.556;12.004;2023-07-20T19:13:32;34.20;82.80
29303;DHT22;60019;45.556;12.004;2023-07-20T19:19:34;33.90;83.60
29303;DHT22;60019;45.556;12.004;2023-07-20T19:25:37;33.50;84.80
29303;DHT22;60019;45.556;12.004;2023-07-20T19:31:40;33.20;86.00
29303;DHT22;60019;45.556;12.004;2023-07-20T19:37:42;32.80;89.50
29303;DHT22;60019;45.556;12.004;2023-07-20T19:43:45;32.20;90.90
29303;DHT22;60019;45.556;12.004;2023-07-20T19:49:47;32.10;91.80
29303;DHT22;60019;45.556;12.004;2023-07-20T19:55:48;32.10;92.90
29303;DHT22;60019;45.556;12.004;2023-07-20T20:01:50;32.00;93.80
29303;DHT22;60019;45.556;12.004;2023-07-20T20:07:51;31.90;94.60
29303;DHT22;60019;45.556;12.004;2023-07-20T20:13:53;31.70;95.20
29303;DHT22;60019;45.556;12.004;2023-07-20T20:19:55;31.60;96.00
29303;DHT22;60019;45.556;12.004;2023-07-20T20:25:56;31.40;97.80
29303;DHT22;60019;45.556;12.004;2023-07-20T20:31:58;30.70;99.00
29303;DHT22;60019;45.556;12.004;2023-07-20T20:37:59;30.00;99.90
29303;DHT22;60019;45.556;12.004;2023-07-20T20:44:01;29.70;99.90
29303;DHT22;60019;45.556;12.004;2023-07-20T20:50:02;29.60;99.90
29303;DHT22;60019;45.556;12.004;2023-07-20T20:56:04;29.80;99.90
29303;DHT22;60019;45.556;12.004;2023-07-20T21:02:06;30.10;99.90
29303;DHT22;60019;45.556;12.004;2023-07-20T21:08:08;30.20;99.90
29303;DHT22;60019;45.556;12.004;2023-07-20T21:14:09;30.30;99.90
29303;DHT22;60019;45.556;12.004;2023-07-20T21:20:11;30.30;99.90
29303;DHT22;60019;45.556;12.004;2023-07-20T21:26:12;30.20;99.90
29303;DHT22;60019;45.556;12.004;2023-07-20T21:32:14;30.10;99.90
29303;DHT22;60019;45.556;12.004;2023-07-20T21:38:17;30.10;99.90
29303;DHT22;60019;45.556;12.004;2023-07-20T21:44:18;30.00;99.90
29303;DHT22;60019;45.556;12.004;2023-07-20T21:50:20;29.80;99.90
29303;DHT22;60019;45.556;12.004;2023-07-20T21:56:21;29.70;99.90
29303;DHT22;60019;45.556;12.004;2023-07-20T22:02:23;29.70;99.90
29303;DHT22;60019;45.556;12.004;2023-07-20T22:08:24;29.70;99.90
29303;DHT22;60019;45.556;12.004;2023-07-20T22:14:27;29.70;99.90
29303;DHT22;60019;45.556;12.004;2023-07-20T22:20:29;29.40;99.90
29303;DHT22;60019;45.556;12.004;2023-07-20T22:26:31;29.30;99.90
29303;DHT22;60019;45.556;12.004;2023-07-20T22:32:33;29.20;99.90
29303;DHT22;60019;45.556;12.004;2023-07-20T22:38:34;29.10;99.90
29303;DHT22;60019;45.556;12.004;2023-07-20T22:44:35;29.00;99.90
29303;DHT22;60019;45.556;12.004;2023-07-20T22:50:37;28.80;99.90
29303;DHT22;60019;45.556;12.004;2023-07-20T22:56:39;28.70;99.90
29303;DHT22;60019;45.556;12.004;2023-07-20T23:02:41;28.70;99.90
29303;DHT22;60019;45.556;12.004;2023-07-20T23:08:44;28.70;99.90
29303;DHT22;60019;45.556;12.004;2023-07-20T23:14:47;28.70;99.90
29303;DHT22;60019;45.556;12.004;2023-07-20T23:20:49;28.60;99.90
29303;DHT22;60019;45.556;12.004;2023-07-20T23:26:50;28.60;99.90
29303;DHT22;60019;45.556;12.004;2023-07-20T23:32:54;28.50;99.90
29303;DHT22;60019;45.556;12.004;2023-07-20T23:38:56;28.50;99.90
29303;DHT22;60019;45.556;12.004;2023-07-20T23:44:58;28.50;99.90
29303;DHT22;60019;45.556;12.004;2023-07-20T23:51:00;28.50;99.90
29303;DHT22;60019;45.556;12.004;2023-07-20T23:57:03;28.50;99.90
